sensor_id;sensor_type;location;lat;lon;timestamp;P1;durP1;ratioP1;P2;durP2;ratioP2
54261;SDS011;40174;52.364;6.452;2023-05-10T00:01:27;11.82;;;5.25;;
54261;SDS011;40174;52.364;6.452;2023-05-10T00:03:55;11.95;;;5.60;;
54261;SDS011;40174;52.364;6.452;2023-05-10T00:06:22;13.95;;;6.05;;
54261;SDS011;40174;52.364;6.452;2023-05-10T00:08:48;12.35;;;6.15;;
54261;SDS011;40174;52.364;6.452;2023-05-10T00:11:15;11.15;;;5.45;;
54261;SDS011;40174;52.364;6.452;2023-05-10T00:13:41;11.10;;;5.05;;
54261;SDS011;40174;52.364;6.452;2023-05-10T00:16:08;10.93;;;5.05;;
54261;SDS011;40174;52.364;6.452;2023-05-10T00:18:35;11.68;;;5.55;;
54261;SDS011;40174;52.364;6.452;2023-05-10T00:21:03;14.77;;;5.40;;
54261;SDS011;40174;52.364;6.452;2023-05-10T00:23:30;13.68;;;5.82;;
54261;SDS011;40174;52.364;6.452;2023-05-10T00:25:56;11.95;;;5.28;;
54261;SDS011;40174;52.364;6.452;2023-05-10T00:28:23;12.95;;;5.38;;
54261;SDS011;40174;52.364;6.452;2023-05-10T00:30:50;11.68;;;5.60;;
54261;SDS011;40174;52.364;6.452;2023-05-10T00:33:16;12.80;;;4.95;;
54261;SDS011;40174;52.364;6.452;2023-05-10T00:35:43;12.52;;;5.57;;
54261;SDS011;40174;52.364;6.452;2023-05-10T00:38:11;13.43;;;5.60;;
54261;SDS011;40174;52.364;6.452;2023-05-10T00:40:38;10.90;;;5.20;;
54261;SDS011;40174;52.364;6.452;2023-05-10T00:43:11;13.00;;;5.15;;
54261;SDS011;40174;52.364;6.452;2023-05-10T00:45:38;12.02;;;5.47;;
54261;SDS011;40174;52.364;6.452;2023-05-10T00:48:06;11.82;;;5.43;;
54261;SDS011;40174;52.364;6.452;2023-05-10T00:50:33;14.23;;;5.43;;
54261;SDS011;40174;52.364;6.452;2023-05-10T00:53:00;15.10;;;6.13;;
54261;SDS011;40174;52.364;6.452;2023-05-10T00:55:29;14.20;;;5.63;;
54261;SDS011;40174;52.364;6.452;2023-05-10T00:57:57;13.38;;;5.32;;
54261;SDS011;40174;52.364;6.452;2023-05-10T01:00:23;12.65;;;5.35;;
54261;SDS011;40174;52.364;6.452;2023-05-10T01:02:50;12.85;;;4.88;;
54261;SDS011;40174;52.364;6.452;2023-05-10T01:05:19;13.13;;;5.32;;
54261;SDS011;40174;52.364;6.452;2023-05-10T01:07:46;10.98;;;4.30;;
54261;SDS011;40174;52.364;6.452;2023-05-10T01:10:13;13.00;;;6.30;;
54261;SDS011;40174;52.364;6.452;2023-05-10T01:12:42;12.57;;;4.57;;
54261;SDS011;40174;52.364;6.452;2023-05-10T01:15:11;11.73;;;5.45;;
54261;SDS011;40174;52.364;6.452;2023-05-10T01:17:40;11.48;;;4.93;;
54261;SDS011;40174;52.364;6.452;2023-05-10T01:20:09;13.18;;;5.63;;
54261;SDS011;40174;52.364;6.452;2023-05-10T01:22:57;11.07;;;4.85;;
54261;SDS011;40174;52.364;6.452;2023-05-10T01:25:41;12.15;;;5.65;;
54261;SDS011;40174;52.364;6.452;2023-05-10T01:28:34;12.93;;;5.30;;
54261;SDS011;40174;52.364;6.452;2023-05-10T01:31:18;13.38;;;5.43;;
54261;SDS011;40174;52.364;6.452;2023-05-10T01:33:59;13.55;;;5.43;;
54261;SDS011;40174;52.364;6.452;2023-05-10T01:36:30;12.18;;;5.60;;
54261;SDS011;40174;52.364;6.452;2023-05-10T01:39:01;12.68;;;5.85;;
54261;SDS011;40174;52.364;6.452;2023-05-10T01:44:09;9.38;;;3.83;;
54261;SDS011;40174;52.364;6.452;2023-05-10T01:46:42;13.65;;;5.32;;
54261;SDS011;40174;52.364;6.452;2023-05-10T01:49:11;13.68;;;5.05;;
54261;SDS011;40174;52.364;6.452;2023-05-10T01:51:47;11.00;;;4.88;;
54261;SDS011;40174;52.364;6.452;2023-05-10T01:54:19;11.75;;;4.78;;
54261;SDS011;40174;52.364;6.452;2023-05-10T01:56:48;12.00;;;5.22;;
54261;SDS011;40174;52.364;6.452;2023-05-10T01:59:21;13.45;;;5.22;;
54261;SDS011;40174;52.364;6.452;2023-05-10T02:01:49;12.93;;;5.13;;
54261;SDS011;40174;52.364;6.452;2023-05-10T02:04:20;12.85;;;5.47;;
54261;SDS011;40174;52.364;6.452;2023-05-10T02:06:50;14.43;;;6.20;;
54261;SDS011;40174;52.364;6.452;2023-05-10T02:09:19;10.57;;;4.55;;
54261;SDS011;40174;52.364;6.452;2023-05-10T02:11:47;14.68;;;5.03;;
54261;SDS011;40174;52.364;6.452;2023-05-10T02:14:15;13.27;;;6.22;;
54261;SDS011;40174;52.364;6.452;2023-05-10T02:16:43;13.02;;;5.32;;
54261;SDS011;40174;52.364;6.452;2023-05-10T02:19:12;16.55;;;6.07;;
54261;SDS011;40174;52.364;6.452;2023-05-10T02:21:42;13.98;;;5.22;;
54261;SDS011;40174;52.364;6.452;2023-05-10T02:24:10;13.32;;;5.32;;
54261;SDS011;40174;52.364;6.452;2023-05-10T02:26:37;14.95;;;5.78;;
54261;SDS011;40174;52.364;6.452;2023-05-10T02:29:05;14.93;;;5.80;;
54261;SDS011;40174;52.364;6.452;2023-05-10T02:31:33;14.90;;;6.32;;
54261;SDS011;40174;52.364;6.452;2023-05-10T02:34:04;15.80;;;6.53;;
54261;SDS011;40174;52.364;6.452;2023-05-10T02:36:32;16.45;;;6.57;;
54261;SDS011;40174;52.364;6.452;2023-05-10T02:39:00;17.33;;;6.85;;
54261;SDS011;40174;52.364;6.452;2023-05-10T02:41:28;17.70;;;6.68;;
54261;SDS011;40174;52.364;6.452;2023-05-10T02:43:59;16.92;;;7.13;;
54261;SDS011;40174;52.364;6.452;2023-05-10T02:46:27;16.08;;;6.95;;
54261;SDS011;40174;52.364;6.452;2023-05-10T02:48:55;17.48;;;6.93;;
54261;SDS011;40174;52.364;6.452;2023-05-10T02:51:21;18.70;;;7.45;;
54261;SDS011;40174;52.364;6.452;2023-05-10T02:53:51;17.42;;;6.82;;
54261;SDS011;40174;52.364;6.452;2023-05-10T02:56:23;18.73;;;7.97;;
54261;SDS011;40174;52.364;6.452;2023-05-10T02:58:55;16.92;;;6.55;;
54261;SDS011;40174;52.364;6.452;2023-05-10T03:01:21;16.00;;;6.95;;
54261;SDS011;40174;52.364;6.452;2023-05-10T03:03:48;21.35;;;7.32;;
54261;SDS011;40174;52.364;6.452;2023-05-10T03:06:15;20.33;;;8.07;;
54261;SDS011;40174;52.364;6.452;2023-05-10T03:08:42;20.15;;;7.28;;
54261;SDS011;40174;52.364;6.452;2023-05-10T03:11:16;24.73;;;9.55;;
54261;SDS011;40174;52.364;6.452;2023-05-10T03:14:05;24.95;;;8.02;;
54261;SDS011;40174;52.364;6.452;2023-05-10T03:16:41;20.40;;;7.63;;
54261;SDS011;40174;52.364;6.452;2023-05-10T03:19:13;21.60;;;8.52;;
54261;SDS011;40174;52.364;6.452;2023-05-10T03:21:46;23.42;;;9.35;;
54261;SDS011;40174;52.364;6.452;2023-05-10T03:24:16;23.25;;;8.52;;
54261;SDS011;40174;52.364;6.452;2023-05-10T03:26:49;24.50;;;8.65;;
54261;SDS011;40174;52.364;6.452;2023-05-10T03:29:17;21.48;;;9.00;;
54261;SDS011;40174;52.364;6.452;2023-05-10T03:31:44;23.95;;;8.43;;
54261;SDS011;40174;52.364;6.452;2023-05-10T03:34:12;29.30;;;10.10;;
54261;SDS011;40174;52.364;6.452;2023-05-10T03:36:40;24.10;;;9.50;;
54261;SDS011;40174;52.364;6.452;2023-05-10T03:39:07;26.63;;;9.00;;
54261;SDS011;40174;52.364;6.452;2023-05-10T03:41:34;26.17;;;9.27;;
54261;SDS011;40174;52.364;6.452;2023-05-10T03:44:02;28.90;;;10.30;;
54261;SDS011;40174;52.364;6.452;2023-05-10T03:46:28;33.00;;;9.90;;
54261;SDS011;40174;52.364;6.452;2023-05-10T03:48:55;26.83;;;9.93;;
54261;SDS011;40174;52.364;6.452;2023-05-10T03:51:22;28.63;;;10.80;;
54261;SDS011;40174;52.364;6.452;2023-05-10T03:53:53;30.30;;;10.35;;
54261;SDS011;40174;52.364;6.452;2023-05-10T03:56:20;30.80;;;10.90;;
54261;SDS011;40174;52.364;6.452;2023-05-10T03:58:46;30.45;;;11.15;;
54261;SDS011;40174;52.364;6.452;2023-05-10T04:01:14;33.85;;;11.43;;
54261;SDS011;40174;52.364;6.452;2023-05-10T04:03:41;32.08;;;11.48;;
54261;SDS011;40174;52.364;6.452;2023-05-10T04:06:08;32.00;;;10.88;;
54261;SDS011;40174;52.364;6.452;2023-05-10T04:08:36;37.63;;;11.98;;
54261;SDS011;40174;52.364;6.452;2023-05-10T04:11:06;32.05;;;11.57;;
54261;SDS011;40174;52.364;6.452;2023-05-10T04:13:34;33.90;;;10.90;;
54261;SDS011;40174;52.364;6.452;2023-05-10T04:16:01;33.58;;;11.07;;
54261;SDS011;40174;52.364;6.452;2023-05-10T04:18:29;26.55;;;10.30;;
54261;SDS011;40174;52.364;6.452;2023-05-10T04:20:55;31.73;;;11.05;;
54261;SDS011;40174;52.364;6.452;2023-05-10T04:23:22;34.33;;;11.77;;
54261;SDS011;40174;52.364;6.452;2023-05-10T04:25:49;41.85;;;12.75;;
54261;SDS011;40174;52.364;6.452;2023-05-10T04:28:15;36.72;;;13.65;;
54261;SDS011;40174;52.364;6.452;2023-05-10T04:30:42;38.58;;;11.85;;
54261;SDS011;40174;52.364;6.452;2023-05-10T04:33:08;41.25;;;12.88;;
54261;SDS011;40174;52.364;6.452;2023-05-10T04:35:36;44.28;;;14.15;;
54261;SDS011;40174;52.364;6.452;2023-05-10T04:38:05;40.38;;;13.32;;
54261;SDS011;40174;52.364;6.452;2023-05-10T04:40:32;43.30;;;13.57;;
54261;SDS011;40174;52.364;6.452;2023-05-10T04:42:59;46.00;;;13.82;;
54261;SDS011;40174;52.364;6.452;2023-05-10T04:45:25;41.50;;;13.23;;
54261;SDS011;40174;52.364;6.452;2023-05-10T04:47:52;42.28;;;14.77;;
54261;SDS011;40174;52.364;6.452;2023-05-10T04:50:18;44.92;;;12.95;;
54261;SDS011;40174;52.364;6.452;2023-05-10T04:52:46;54.63;;;15.20;;
54261;SDS011;40174;52.364;6.452;2023-05-10T04:55:13;44.85;;;13.63;;
54261;SDS011;40174;52.364;6.452;2023-05-10T04:57:40;52.70;;;15.07;;
54261;SDS011;40174;52.364;6.452;2023-05-10T05:00:07;55.45;;;17.05;;
54261;SDS011;40174;52.364;6.452;2023-05-10T05:02:34;49.40;;;14.85;;
54261;SDS011;40174;52.364;6.452;2023-05-10T05:05:00;49.72;;;15.27;;
54261;SDS011;40174;52.364;6.452;2023-05-10T05:07:27;57.67;;;17.13;;
54261;SDS011;40174;52.364;6.452;2023-05-10T05:09:56;56.20;;;16.73;;
54261;SDS011;40174;52.364;6.452;2023-05-10T05:12:23;55.22;;;16.27;;
54261;SDS011;40174;52.364;6.452;2023-05-10T05:14:50;53.88;;;16.60;;
54261;SDS011;40174;52.364;6.452;2023-05-10T05:17:16;50.15;;;15.68;;
54261;SDS011;40174;52.364;6.452;2023-05-10T05:19:43;60.25;;;16.05;;
54261;SDS011;40174;52.364;6.452;2023-05-10T05:22:10;54.17;;;16.88;;
54261;SDS011;40174;52.364;6.452;2023-05-10T05:24:36;57.80;;;17.92;;
54261;SDS011;40174;52.364;6.452;2023-05-10T05:27:05;63.13;;;18.48;;
54261;SDS011;40174;52.364;6.452;2023-05-10T05:29:32;58.55;;;16.25;;
54261;SDS011;40174;52.364;6.452;2023-05-10T05:31:58;58.35;;;16.42;;
54261;SDS011;40174;52.364;6.452;2023-05-10T05:34:26;58.78;;;17.63;;
54261;SDS011;40174;52.364;6.452;2023-05-10T05:36:52;46.85;;;16.35;;
54261;SDS011;40174;52.364;6.452;2023-05-10T05:39:19;51.58;;;16.38;;
54261;SDS011;40174;52.364;6.452;2023-05-10T05:41:46;62.90;;;17.55;;
54261;SDS011;40174;52.364;6.452;2023-05-10T05:44:14;55.67;;;17.80;;
54261;SDS011;40174;52.364;6.452;2023-05-10T05:46:40;50.30;;;16.48;;
54261;SDS011;40174;52.364;6.452;2023-05-10T05:49:07;56.15;;;17.27;;
54261;SDS011;40174;52.364;6.452;2023-05-10T05:51:33;57.10;;;16.15;;
54261;SDS011;40174;52.364;6.452;2023-05-10T05:54:00;47.63;;;15.40;;
54261;SDS011;40174;52.364;6.452;2023-05-10T05:56:29;54.83;;;16.95;;
54261;SDS011;40174;52.364;6.452;2023-05-10T05:58:55;57.05;;;17.65;;
54261;SDS011;40174;52.364;6.452;2023-05-10T06:01:23;54.40;;;16.27;;
54261;SDS011;40174;52.364;6.452;2023-05-10T06:03:50;56.63;;;16.77;;
54261;SDS011;40174;52.364;6.452;2023-05-10T06:06:16;51.55;;;16.20;;
54261;SDS011;40174;52.364;6.452;2023-05-10T06:08:43;59.40;;;17.42;;
54261;SDS011;40174;52.364;6.452;2023-05-10T06:11:10;57.92;;;17.52;;
54261;SDS011;40174;52.364;6.452;2023-05-10T06:13:36;54.30;;;16.02;;
54261;SDS011;40174;52.364;6.452;2023-05-10T06:16:03;57.13;;;16.60;;
54261;SDS011;40174;52.364;6.452;2023-05-10T06:18:31;55.60;;;16.90;;
54261;SDS011;40174;52.364;6.452;2023-05-10T06:20:57;54.83;;;17.55;;
54261;SDS011;40174;52.364;6.452;2023-05-10T06:23:24;53.13;;;16.25;;
54261;SDS011;40174;52.364;6.452;2023-05-10T06:25:51;53.45;;;15.57;;
54261;SDS011;40174;52.364;6.452;2023-05-10T06:28:18;54.58;;;16.70;;
54261;SDS011;40174;52.364;6.452;2023-05-10T06:30:45;48.40;;;15.20;;
54261;SDS011;40174;52.364;6.452;2023-05-10T06:33:11;48.63;;;16.00;;
54261;SDS011;40174;52.364;6.452;2023-05-10T06:35:39;46.30;;;14.85;;
54261;SDS011;40174;52.364;6.452;2023-05-10T06:38:06;47.45;;;14.30;;
54261;SDS011;40174;52.364;6.452;2023-05-10T06:40:32;50.25;;;14.93;;
54261;SDS011;40174;52.364;6.452;2023-05-10T06:42:59;56.72;;;15.75;;
54261;SDS011;40174;52.364;6.452;2023-05-10T06:45:25;44.10;;;14.57;;
54261;SDS011;40174;52.364;6.452;2023-05-10T06:47:52;45.83;;;14.82;;
54261;SDS011;40174;52.364;6.452;2023-05-10T06:50:19;45.08;;;16.45;;
54261;SDS011;40174;52.364;6.452;2023-05-10T06:52:47;53.33;;;15.60;;
54261;SDS011;40174;52.364;6.452;2023-05-10T06:55:13;45.65;;;13.98;;
54261;SDS011;40174;52.364;6.452;2023-05-10T06:57:40;41.95;;;15.13;;
54261;SDS011;40174;52.364;6.452;2023-05-10T07:00:07;46.85;;;14.93;;
54261;SDS011;40174;52.364;6.452;2023-05-10T07:02:34;43.75;;;14.27;;
54261;SDS011;40174;52.364;6.452;2023-05-10T07:05:01;47.85;;;15.15;;
54261;SDS011;40174;52.364;6.452;2023-05-10T07:07:27;42.00;;;14.88;;
54261;SDS011;40174;52.364;6.452;2023-05-10T07:09:55;43.92;;;14.55;;
54261;SDS011;40174;52.364;6.452;2023-05-10T07:12:22;40.53;;;15.35;;
54261;SDS011;40174;52.364;6.452;2023-05-10T07:14:49;42.20;;;14.32;;
54261;SDS011;40174;52.364;6.452;2023-05-10T07:17:16;44.65;;;14.50;;
54261;SDS011;40174;52.364;6.452;2023-05-10T07:19:42;40.78;;;13.02;;
54261;SDS011;40174;52.364;6.452;2023-05-10T07:22:09;47.80;;;13.82;;
54261;SDS011;40174;52.364;6.452;2023-05-10T07:24:36;41.75;;;14.20;;
54261;SDS011;40174;52.364;6.452;2023-05-10T07:27:04;47.35;;;15.10;;
54261;SDS011;40174;52.364;6.452;2023-05-10T07:29:30;42.58;;;14.90;;
54261;SDS011;40174;52.364;6.452;2023-05-10T07:31:57;44.80;;;15.60;;
54261;SDS011;40174;52.364;6.452;2023-05-10T07:34:24;40.03;;;13.75;;
54261;SDS011;40174;52.364;6.452;2023-05-10T07:36:50;49.25;;;15.48;;
54261;SDS011;40174;52.364;6.452;2023-05-10T07:39:17;36.90;;;13.93;;
54261;SDS011;40174;52.364;6.452;2023-05-10T07:41:45;41.95;;;14.25;;
54261;SDS011;40174;52.364;6.452;2023-05-10T07:44:13;44.40;;;15.88;;
54261;SDS011;40174;52.364;6.452;2023-05-10T07:46:40;37.53;;;14.82;;
54261;SDS011;40174;52.364;6.452;2023-05-10T07:49:06;37.38;;;13.50;;
54261;SDS011;40174;52.364;6.452;2023-05-10T07:51:33;42.53;;;14.88;;
54261;SDS011;40174;52.364;6.452;2023-05-10T07:54:00;45.78;;;14.70;;
54261;SDS011;40174;52.364;6.452;2023-05-10T07:56:28;40.53;;;13.70;;
54261;SDS011;40174;52.364;6.452;2023-05-10T07:58:57;39.28;;;13.20;;
54261;SDS011;40174;52.364;6.452;2023-05-10T08:01:25;35.28;;;11.75;;
54261;SDS011;40174;52.364;6.452;2023-05-10T08:03:52;30.77;;;11.40;;
54261;SDS011;40174;52.364;6.452;2023-05-10T08:06:19;37.13;;;12.07;;
54261;SDS011;40174;52.364;6.452;2023-05-10T08:08:46;36.63;;;12.45;;
54261;SDS011;40174;52.364;6.452;2023-05-10T08:11:15;39.22;;;12.88;;
54261;SDS011;40174;52.364;6.452;2023-05-10T08:13:41;36.25;;;12.50;;
54261;SDS011;40174;52.364;6.452;2023-05-10T08:16:08;31.95;;;11.20;;
54261;SDS011;40174;52.364;6.452;2023-05-10T08:18:36;31.00;;;10.98;;
54261;SDS011;40174;52.364;6.452;2023-05-10T08:21:03;31.33;;;10.02;;
54261;SDS011;40174;52.364;6.452;2023-05-10T08:23:29;29.38;;;10.32;;
54261;SDS011;40174;52.364;6.452;2023-05-10T08:25:56;29.33;;;10.27;;
54261;SDS011;40174;52.364;6.452;2023-05-10T08:28:23;23.05;;;9.38;;
54261;SDS011;40174;52.364;6.452;2023-05-10T08:30:49;25.52;;;9.18;;
54261;SDS011;40174;52.364;6.452;2023-05-10T08:33:17;27.27;;;8.65;;
54261;SDS011;40174;52.364;6.452;2023-05-10T08:35:45;27.60;;;9.85;;
54261;SDS011;40174;52.364;6.452;2023-05-10T08:38:12;23.08;;;8.98;;
54261;SDS011;40174;52.364;6.452;2023-05-10T08:40:39;33.00;;;9.18;;
54261;SDS011;40174;52.364;6.452;2023-05-10T08:43:08;29.95;;;10.05;;
54261;SDS011;40174;52.364;6.452;2023-05-10T08:45:37;24.73;;;8.70;;
54261;SDS011;40174;52.364;6.452;2023-05-10T08:48:05;25.85;;;8.00;;
54261;SDS011;40174;52.364;6.452;2023-05-10T08:50:33;22.35;;;7.43;;
54261;SDS011;40174;52.364;6.452;2023-05-10T08:53:04;24.70;;;8.35;;
54261;SDS011;40174;52.364;6.452;2023-05-10T08:55:32;20.75;;;7.43;;
54261;SDS011;40174;52.364;6.452;2023-05-10T08:57:59;18.73;;;6.88;;
54261;SDS011;40174;52.364;6.452;2023-05-10T09:00:26;21.63;;;7.43;;
54261;SDS011;40174;52.364;6.452;2023-05-10T09:02:54;22.35;;;8.18;;
54261;SDS011;40174;52.364;6.452;2023-05-10T09:05:20;25.38;;;8.40;;
54261;SDS011;40174;52.364;6.452;2023-05-10T09:07:47;21.48;;;8.07;;
54261;SDS011;40174;52.364;6.452;2023-05-10T09:10:15;20.20;;;7.88;;
54261;SDS011;40174;52.364;6.452;2023-05-10T09:12:42;23.02;;;7.32;;
54261;SDS011;40174;52.364;6.452;2023-05-10T09:15:10;19.85;;;6.53;;
54261;SDS011;40174;52.364;6.452;2023-05-10T09:17:37;20.65;;;6.88;;
54261;SDS011;40174;52.364;6.452;2023-05-10T09:20:06;22.83;;;7.72;;
54261;SDS011;40174;52.364;6.452;2023-05-10T09:22:33;17.52;;;6.35;;
54261;SDS011;40174;52.364;6.452;2023-05-10T09:25:07;17.52;;;6.85;;
54261;SDS011;40174;52.364;6.452;2023-05-10T09:27:37;22.15;;;6.32;;
54261;SDS011;40174;52.364;6.452;2023-05-10T09:30:05;19.13;;;5.70;;
54261;SDS011;40174;52.364;6.452;2023-05-10T09:32:37;20.70;;;6.68;;
54261;SDS011;40174;52.364;6.452;2023-05-10T09:35:08;16.35;;;5.72;;
54261;SDS011;40174;52.364;6.452;2023-05-10T09:37:35;16.25;;;5.40;;
54261;SDS011;40174;52.364;6.452;2023-05-10T09:40:04;17.33;;;5.82;;
54261;SDS011;40174;52.364;6.452;2023-05-10T09:42:33;13.57;;;4.40;;
54261;SDS011;40174;52.364;6.452;2023-05-10T09:45:02;13.32;;;5.43;;
54261;SDS011;40174;52.364;6.452;2023-05-10T09:47:31;12.88;;;4.28;;
54261;SDS011;40174;52.364;6.452;2023-05-10T09:49:59;15.43;;;5.43;;
54261;SDS011;40174;52.364;6.452;2023-05-10T09:52:29;14.90;;;4.90;;
54261;SDS011;40174;52.364;6.452;2023-05-10T09:54:57;13.73;;;5.47;;
54261;SDS011;40174;52.364;6.452;2023-05-10T09:57:24;14.18;;;4.57;;
54261;SDS011;40174;52.364;6.452;2023-05-10T09:59:51;12.50;;;5.00;;
54261;SDS011;40174;52.364;6.452;2023-05-10T10:02:20;14.00;;;5.03;;
54261;SDS011;40174;52.364;6.452;2023-05-10T10:04:54;12.05;;;4.63;;
54261;SDS011;40174;52.364;6.452;2023-05-10T10:07:22;14.23;;;4.70;;
54261;SDS011;40174;52.364;6.452;2023-05-10T10:09:49;15.32;;;4.43;;
54261;SDS011;40174;52.364;6.452;2023-05-10T10:12:16;11.68;;;4.15;;
54261;SDS011;40174;52.364;6.452;2023-05-10T10:14:45;12.82;;;4.00;;
54261;SDS011;40174;52.364;6.452;2023-05-10T10:17:12;12.82;;;4.45;;
54261;SDS011;40174;52.364;6.452;2023-05-10T10:19:40;11.18;;;4.40;;
54261;SDS011;40174;52.364;6.452;2023-05-10T10:22:07;9.43;;;4.05;;
54261;SDS011;40174;52.364;6.452;2023-05-10T10:24:35;13.02;;;5.43;;
54261;SDS011;40174;52.364;6.452;2023-05-10T10:27:04;12.82;;;3.95;;
54261;SDS011;40174;52.364;6.452;2023-05-10T10:29:39;11.60;;;4.43;;
54261;SDS011;40174;52.364;6.452;2023-05-10T10:32:20;12.93;;;3.38;;
54261;SDS011;40174;52.364;6.452;2023-05-10T10:34:53;11.63;;;3.72;;
54261;SDS011;40174;52.364;6.452;2023-05-10T10:37:21;23.50;;;9.80;;
54261;SDS011;40174;52.364;6.452;2023-05-10T10:39:48;11.50;;;4.18;;
54261;SDS011;40174;52.364;6.452;2023-05-10T10:42:14;10.80;;;3.75;;
54261;SDS011;40174;52.364;6.452;2023-05-10T10:45:12;7.80;;;3.15;;
54261;SDS011;40174;52.364;6.452;2023-05-10T10:47:39;7.45;;;2.88;;
54261;SDS011;40174;52.364;6.452;2023-05-10T10:50:06;9.30;;;3.67;;
54261;SDS011;40174;52.364;6.452;2023-05-10T10:52:34;7.25;;;2.88;;
54261;SDS011;40174;52.364;6.452;2023-05-10T10:55:03;8.07;;;2.88;;
54261;SDS011;40174;52.364;6.452;2023-05-10T10:57:32;7.28;;;2.90;;
54261;SDS011;40174;52.364;6.452;2023-05-10T11:02:52;9.00;;;3.28;;
54261;SDS011;40174;52.364;6.452;2023-05-10T11:08:09;8.50;;;3.50;;
54261;SDS011;40174;52.364;6.452;2023-05-10T11:10:48;9.68;;;3.30;;
54261;SDS011;40174;52.364;6.452;2023-05-10T11:13:17;10.63;;;3.05;;
54261;SDS011;40174;52.364;6.452;2023-05-10T11:15:55;10.10;;;2.88;;
54261;SDS011;40174;52.364;6.452;2023-05-10T11:18:24;8.45;;;3.47;;
54261;SDS011;40174;52.364;6.452;2023-05-10T11:20:54;7.50;;;2.95;;
54261;SDS011;40174;52.364;6.452;2023-05-10T11:23:22;10.63;;;3.25;;
54261;SDS011;40174;52.364;6.452;2023-05-10T11:25:49;7.60;;;2.50;;
54261;SDS011;40174;52.364;6.452;2023-05-10T11:28:17;7.50;;;2.70;;
54261;SDS011;40174;52.364;6.452;2023-05-10T11:30:44;8.48;;;3.00;;
54261;SDS011;40174;52.364;6.452;2023-05-10T11:33:16;8.88;;;3.35;;
54261;SDS011;40174;52.364;6.452;2023-05-10T11:35:44;8.50;;;2.58;;
54261;SDS011;40174;52.364;6.452;2023-05-10T11:38:11;9.00;;;3.10;;
54261;SDS011;40174;52.364;6.452;2023-05-10T11:40:41;7.03;;;2.50;;
54261;SDS011;40174;52.364;6.452;2023-05-10T11:43:08;8.10;;;2.85;;
54261;SDS011;40174;52.364;6.452;2023-05-10T11:45:36;6.50;;;3.10;;
54261;SDS011;40174;52.364;6.452;2023-05-10T11:48:03;10.50;;;3.10;;
54261;SDS011;40174;52.364;6.452;2023-05-10T11:50:31;6.13;;;2.55;;
54261;SDS011;40174;52.364;6.452;2023-05-10T11:52:58;9.05;;;3.15;;
54261;SDS011;40174;52.364;6.452;2023-05-10T11:55:25;7.78;;;3.33;;
54261;SDS011;40174;52.364;6.452;2023-05-10T11:57:52;7.00;;;2.63;;
54261;SDS011;40174;52.364;6.452;2023-05-10T12:00:19;9.43;;;2.80;;
54261;SDS011;40174;52.364;6.452;2023-05-10T12:02:46;9.38;;;2.85;;
54261;SDS011;40174;52.364;6.452;2023-05-10T12:05:13;6.50;;;2.20;;
54261;SDS011;40174;52.364;6.452;2023-05-10T12:07:41;7.90;;;2.22;;
54261;SDS011;40174;52.364;6.452;2023-05-10T12:10:09;7.38;;;2.45;;
54261;SDS011;40174;52.364;6.452;2023-05-10T12:12:37;7.78;;;2.65;;
54261;SDS011;40174;52.364;6.452;2023-05-10T12:15:10;8.82;;;2.83;;
54261;SDS011;40174;52.364;6.452;2023-05-10T12:17:37;5.75;;;2.13;;
54261;SDS011;40174;52.364;6.452;2023-05-10T12:20:14;5.65;;;2.33;;
54261;SDS011;40174;52.364;6.452;2023-05-10T12:22:47;6.82;;;2.53;;
54261;SDS011;40174;52.364;6.452;2023-05-10T12:25:16;8.13;;;2.80;;
54261;SDS011;40174;52.364;6.452;2023-05-10T12:27:50;8.05;;;2.92;;
54261;SDS011;40174;52.364;6.452;2023-05-10T12:30:21;8.15;;;2.60;;
54261;SDS011;40174;52.364;6.452;2023-05-10T12:32:48;7.20;;;2.60;;
54261;SDS011;40174;52.364;6.452;2023-05-10T12:35:15;8.15;;;3.03;;
54261;SDS011;40174;52.364;6.452;2023-05-10T12:37:46;8.93;;;2.90;;
54261;SDS011;40174;52.364;6.452;2023-05-10T12:40:13;7.57;;;2.85;;
54261;SDS011;40174;52.364;6.452;2023-05-10T12:42:40;11.00;;;3.25;;
54261;SDS011;40174;52.364;6.452;2023-05-10T12:45:07;7.03;;;2.75;;
54261;SDS011;40174;52.364;6.452;2023-05-10T12:47:34;6.85;;;2.90;;
54261;SDS011;40174;52.364;6.452;2023-05-10T12:50:01;7.15;;;2.22;;
54261;SDS011;40174;52.364;6.452;2023-05-10T12:52:29;7.55;;;1.85;;
54261;SDS011;40174;52.364;6.452;2023-05-10T12:54:58;6.25;;;2.47;;
54261;SDS011;40174;52.364;6.452;2023-05-10T12:57:26;8.63;;;2.75;;
54261;SDS011;40174;52.364;6.452;2023-05-10T12:59:53;6.18;;;2.90;;
54261;SDS011;40174;52.364;6.452;2023-05-10T13:02:20;10.07;;;3.10;;
54261;SDS011;40174;52.364;6.452;2023-05-10T13:04:48;8.82;;;2.83;;
54261;SDS011;40174;52.364;6.452;2023-05-10T13:07:15;6.03;;;2.55;;
54261;SDS011;40174;52.364;6.452;2023-05-10T13:09:41;9.68;;;3.53;;
54261;SDS011;40174;52.364;6.452;2023-05-10T13:12:09;7.32;;;3.47;;
54261;SDS011;40174;52.364;6.452;2023-05-10T13:14:36;9.27;;;3.70;;
54261;SDS011;40174;52.364;6.452;2023-05-10T13:17:03;8.35;;;3.60;;
54261;SDS011;40174;52.364;6.452;2023-05-10T13:19:29;9.85;;;3.88;;
54261;SDS011;40174;52.364;6.452;2023-05-10T13:21:56;9.60;;;3.42;;
54261;SDS011;40174;52.364;6.452;2023-05-10T13:24:23;11.27;;;3.60;;
54261;SDS011;40174;52.364;6.452;2023-05-10T13:26:49;9.40;;;3.90;;
54261;SDS011;40174;52.364;6.452;2023-05-10T13:29:17;11.13;;;4.00;;
54261;SDS011;40174;52.364;6.452;2023-05-10T13:31:44;10.77;;;4.13;;
54261;SDS011;40174;52.364;6.452;2023-05-10T13:34:10;10.23;;;4.03;;
54261;SDS011;40174;52.364;6.452;2023-05-10T13:36:37;10.20;;;3.70;;
54261;SDS011;40174;52.364;6.452;2023-05-10T13:39:04;9.65;;;4.10;;
54261;SDS011;40174;52.364;6.452;2023-05-10T13:41:31;9.68;;;3.78;;
54261;SDS011;40174;52.364;6.452;2023-05-10T13:43:57;8.48;;;4.30;;
54261;SDS011;40174;52.364;6.452;2023-05-10T13:46:25;11.30;;;4.18;;
54261;SDS011;40174;52.364;6.452;2023-05-10T13:48:52;8.98;;;3.38;;
54261;SDS011;40174;52.364;6.452;2023-05-10T13:51:18;8.45;;;3.35;;
54261;SDS011;40174;52.364;6.452;2023-05-10T13:53:45;9.40;;;3.30;;
54261;SDS011;40174;52.364;6.452;2023-05-10T13:56:12;12.27;;;4.07;;
54261;SDS011;40174;52.364;6.452;2023-05-10T13:58:39;9.48;;;4.00;;
54261;SDS011;40174;52.364;6.452;2023-05-10T14:01:06;11.15;;;3.90;;
54261;SDS011;40174;52.364;6.452;2023-05-10T14:03:34;11.13;;;4.25;;
54261;SDS011;40174;52.364;6.452;2023-05-10T14:06:02;11.02;;;3.40;;
54261;SDS011;40174;52.364;6.452;2023-05-10T14:08:28;10.30;;;3.90;;
54261;SDS011;40174;52.364;6.452;2023-05-10T14:10:55;10.55;;;4.50;;
54261;SDS011;40174;52.364;6.452;2023-05-10T14:13:23;8.30;;;3.15;;
54261;SDS011;40174;52.364;6.452;2023-05-10T14:15:49;12.80;;;4.22;;
54261;SDS011;40174;52.364;6.452;2023-05-10T14:18:16;12.60;;;3.63;;
54261;SDS011;40174;52.364;6.452;2023-05-10T14:20:44;8.55;;;3.60;;
54261;SDS011;40174;52.364;6.452;2023-05-10T14:23:11;12.32;;;3.92;;
54261;SDS011;40174;52.364;6.452;2023-05-10T14:25:37;10.30;;;4.18;;
54261;SDS011;40174;52.364;6.452;2023-05-10T14:28:04;10.95;;;4.00;;
54261;SDS011;40174;52.364;6.452;2023-05-10T14:30:31;10.77;;;4.10;;
54261;SDS011;40174;52.364;6.452;2023-05-10T14:32:59;13.88;;;3.78;;
54261;SDS011;40174;52.364;6.452;2023-05-10T14:35:26;11.95;;;4.70;;
54261;SDS011;40174;52.364;6.452;2023-05-10T14:37:54;11.70;;;4.78;;
54261;SDS011;40174;52.364;6.452;2023-05-10T14:40:21;12.98;;;4.70;;
54261;SDS011;40174;52.364;6.452;2023-05-10T14:42:48;9.85;;;4.07;;
54261;SDS011;40174;52.364;6.452;2023-05-10T14:45:14;12.48;;;3.63;;
54261;SDS011;40174;52.364;6.452;2023-05-10T14:47:41;11.15;;;4.85;;